createdAt,value
2022-10-07T00:00:06.127Z,8.35
2022-10-07T00:01:06.309Z,8.33
2022-10-07T00:02:06.177Z,8.33
2022-10-07T00:03:06.113Z,8.32
2022-10-07T00:04:06.092Z,8.33
2022-10-07T00:05:06.062Z,8.33
2022-10-07T00:06:06.034Z,8.33
2022-10-07T00:07:06.030Z,8.32
2022-10-07T00:08:05.997Z,8.33
2022-10-07T00:09:06.010Z,8.30
2022-10-07T00:10:05.985Z,8.32
2022-10-07T00:11:05.986Z,8.30
2022-10-07T00:12:05.944Z,8.30
2022-10-07T00:13:05.929Z,8.29
2022-10-07T00:14:06.047Z,8.32
2022-10-07T00:15:05.904Z,8.35
2022-10-07T00:16:06.072Z,8.35
2022-10-07T00:17:05.883Z,8.33
2022-10-07T00:18:05.864Z,8.32
2022-10-07T00:19:05.867Z,8.33
2022-10-07T00:20:05.889Z,8.32
2022-10-07T00:21:05.855Z,8.29
2022-10-07T00:22:05.824Z,8.30
2022-10-07T00:23:05.825Z,8.29
2022-10-07T00:24:05.824Z,8.28
2022-10-07T00:25:05.772Z,8.26
2022-10-07T00:26:05.796Z,8.29
2022-10-07T00:27:05.757Z,8.26
2022-10-07T00:28:05.775Z,8.26
2022-10-07T00:29:05.748Z,8.28
2022-10-07T00:30:05.715Z,8.25
2022-10-07T00:31:05.796Z,8.26
2022-10-07T00:32:05.670Z,8.26
2022-10-07T00:33:05.719Z,8.29
2022-10-07T00:34:05.651Z,8.29
2022-10-07T00:35:05.658Z,8.32
2022-10-07T00:36:05.569Z,8.32
2022-10-07T00:37:05.583Z,8.32
2022-10-07T00:38:05.520Z,8.30
2022-10-07T00:39:05.512Z,8.29
2022-10-07T00:40:05.511Z,8.32
2022-10-07T00:41:05.511Z,8.30
2022-10-07T00:42:05.567Z,8.32
2022-10-07T00:43:05.465Z,8.32
2022-10-07T00:44:05.482Z,8.32
2022-10-07T00:45:05.455Z,8.30
2022-10-07T00:46:05.475Z,8.29
2022-10-07T00:47:05.379Z,8.32
2022-10-07T00:48:05.363Z,8.35
2022-10-07T00:49:05.369Z,8.33
2022-10-07T00:50:05.360Z,8.32
2022-10-07T00:51:05.336Z,8.32
2022-10-07T00:52:05.294Z,8.33
2022-10-07T00:53:05.341Z,8.30
2022-10-07T00:54:05.287Z,8.30
2022-10-07T00:55:05.279Z,8.30
2022-10-07T00:56:05.312Z,8.29
2022-10-07T00:57:05.244Z,8.28
2022-10-07T00:58:05.252Z,8.30
2022-10-07T00:59:05.213Z,8.28
2022-10-07T01:00:05.190Z,8.29
2022-10-07T01:01:05.225Z,8.30
2022-10-07T01:02:05.471Z,8.32
2022-10-07T01:03:05.213Z,8.32
2022-10-07T01:04:05.166Z,8.32
2022-10-07T01:05:05.165Z,8.30
2022-10-07T01:06:05.148Z,8.36
2022-10-07T01:07:05.134Z,8.36
2022-10-07T01:08:05.107Z,8.36
2022-10-07T01:09:05.145Z,8.35
2022-10-07T01:10:05.194Z,8.36
2022-10-07T01:11:05.121Z,8.33
2022-10-07T01:12:05.130Z,8.29
2022-10-07T01:13:05.126Z,8.28
2022-10-07T01:14:05.082Z,8.30
2022-10-07T01:15:05.052Z,8.25
2022-10-07T01:16:04.986Z,8.26
2022-10-07T01:17:05.073Z,8.21
2022-10-07T01:18:04.977Z,8.22
2022-10-07T01:19:04.997Z,8.21
2022-10-07T01:20:04.947Z,8.18
2022-10-07T01:21:04.962Z,8.18
2022-10-07T01:22:05.003Z,8.21
2022-10-07T01:23:04.955Z,8.17
2022-10-07T01:24:04.910Z,8.20
2022-10-07T01:25:04.952Z,8.20
2022-10-07T01:26:04.857Z,8.20
2022-10-07T01:27:04.875Z,8.21
2022-10-07T01:28:04.919Z,8.21
2022-10-07T01:29:04.821Z,8.21
2022-10-07T01:30:04.795Z,8.17
2022-10-07T01:31:04.869Z,8.17
2022-10-07T01:32:04.808Z,8.15
2022-10-07T01:33:04.778Z,8.14
2022-10-07T01:34:04.832Z,8.15
2022-10-07T01:35:04.761Z,8.11
2022-10-07T01:36:04.766Z,8.12
2022-10-07T01:37:04.770Z,8.10
2022-10-07T01:38:04.689Z,8.12
2022-10-07T01:39:04.687Z,8.07
2022-10-07T01:40:04.669Z,8.04
2022-10-07T01:41:04.672Z,8.10
2022-10-07T01:42:04.667Z,8.07
2022-10-07T01:43:04.623Z,8.08
2022-10-07T01:44:04.614Z,8.07
2022-10-07T01:45:04.632Z,8.10
2022-10-07T01:46:04.702Z,8.10
2022-10-07T01:47:04.609Z,8.11
2022-10-07T01:48:04.566Z,8.12
2022-10-07T01:49:04.546Z,8.12
2022-10-07T01:50:06.419Z,8.14
2022-10-07T01:51:04.557Z,8.15
2022-10-07T01:52:04.570Z,8.14
2022-10-07T01:53:04.641Z,8.12
2022-10-07T01:54:04.604Z,8.11
2022-10-07T01:55:04.489Z,8.10
2022-10-07T01:56:04.503Z,8.08
2022-10-07T01:57:04.457Z,8.08
2022-10-07T01:58:04.513Z,8.07
2022-10-07T01:59:04.410Z,8.04
2022-10-07T02:00:04.402Z,8.04
2022-10-07T02:01:04.443Z,8.02
2022-10-07T02:02:04.351Z,7.97
2022-10-07T02:03:04.375Z,7.99
2022-10-07T02:04:04.429Z,8.00
2022-10-07T02:05:04.358Z,8.00
2022-10-07T02:06:04.362Z,7.96
2022-10-07T02:07:04.296Z,7.94
2022-10-07T02:08:04.267Z,7.93
2022-10-07T02:09:04.391Z,7.93
2022-10-07T02:10:04.296Z,7.92
2022-10-07T02:11:04.315Z,7.90
2022-10-07T02:12:04.223Z,7.90
2022-10-07T02:13:04.277Z,7.87
2022-10-07T02:14:04.223Z,7.85
2022-10-07T02:15:04.655Z,7.87
2022-10-07T02:16:04.293Z,7.82
2022-10-07T02:17:04.147Z,7.84
2022-10-07T02:18:04.135Z,7.81
2022-10-07T02:19:04.134Z,7.82
2022-10-07T02:20:04.151Z,7.81
2022-10-07T02:21:04.153Z,7.78
2022-10-07T02:22:04.076Z,7.79
2022-10-07T02:23:04.082Z,7.79
2022-10-07T02:24:04.082Z,7.82
2022-10-07T02:25:04.091Z,7.84
2022-10-07T02:26:04.047Z,7.85
2022-10-07T02:27:04.053Z,7.82
2022-10-07T02:28:04.075Z,7.82
2022-10-07T02:29:04.009Z,7.82
2022-10-07T02:30:03.971Z,7.81
2022-10-07T02:31:04.103Z,7.79
2022-10-07T02:32:03.971Z,7.79
2022-10-07T02:33:03.959Z,7.75
2022-10-07T02:34:03.910Z,7.78
2022-10-07T02:35:03.924Z,7.81
2022-10-07T02:36:03.918Z,7.81
2022-10-07T02:37:03.866Z,7.82
2022-10-07T02:38:03.885Z,7.82
2022-10-07T02:39:03.867Z,7.84
2022-10-07T02:40:07.156Z,7.82
2022-10-07T02:41:03.884Z,7.79
2022-10-07T02:42:03.807Z,7.78
2022-10-07T02:43:03.793Z,7.74
2022-10-07T02:44:03.775Z,7.71
2022-10-07T02:45:03.752Z,7.69
2022-10-07T02:46:03.866Z,7.66
2022-10-07T02:47:03.751Z,7.62
2022-10-07T02:48:03.728Z,7.60
2022-10-07T02:49:03.702Z,7.62
2022-10-07T02:50:03.699Z,7.66
2022-10-07T02:51:03.670Z,7.67
2022-10-07T02:52:03.677Z,7.71
2022-10-07T02:53:03.701Z,7.71
2022-10-07T02:54:03.666Z,7.74
2022-10-07T02:55:03.644Z,7.69
2022-10-07T02:56:03.624Z,7.69
2022-10-07T02:57:03.609Z,7.71
2022-10-07T02:58:03.599Z,7.66
2022-10-07T02:59:03.578Z,7.66
2022-10-07T03:00:07.323Z,7.69
2022-10-07T03:01:03.552Z,7.66
2022-10-07T03:02:03.569Z,7.69
2022-10-07T03:03:03.516Z,7.71
2022-10-07T03:04:03.578Z,7.74
2022-10-07T03:05:03.543Z,7.75
2022-10-07T03:06:03.572Z,7.77
2022-10-07T03:07:03.818Z,7.77
2022-10-07T03:08:03.525Z,7.78
2022-10-07T03:09:03.503Z,7.81
2022-10-07T03:10:03.447Z,7.79
2022-10-07T03:11:03.465Z,7.82
2022-10-07T03:12:03.453Z,7.81
2022-10-07T03:13:03.382Z,7.81
2022-10-07T03:14:03.395Z,7.78
2022-10-07T03:15:03.379Z,7.81
2022-10-07T03:16:03.385Z,7.79
2022-10-07T03:17:03.320Z,7.79
2022-10-07T03:18:03.310Z,7.82
2022-10-07T03:19:03.301Z,7.81
2022-10-07T03:20:03.274Z,7.84
2022-10-07T03:21:03.262Z,7.82
2022-10-07T03:22:03.318Z,7.78
2022-10-07T03:23:03.253Z,7.81
2022-10-07T03:24:03.212Z,7.82
2022-10-07T03:25:03.203Z,7.78
2022-10-07T03:26:03.199Z,7.84
2022-10-07T03:27:04.934Z,7.82
2022-10-07T03:28:03.198Z,7.81
2022-10-07T03:29:03.168Z,7.84
2022-10-07T03:30:03.179Z,7.82
2022-10-07T03:31:03.191Z,7.81
2022-10-07T03:32:03.123Z,7.81
2022-10-07T03:33:03.093Z,7.79
2022-10-07T03:34:03.077Z,7.78
2022-10-07T03:35:03.102Z,7.79
2022-10-07T03:36:03.054Z,7.77
2022-10-07T03:37:03.059Z,7.75
2022-10-07T03:38:03.032Z,7.74
2022-10-07T03:39:03.000Z,7.74
2022-10-07T03:40:03.011Z,7.72
2022-10-07T03:41:02.980Z,7.74
2022-10-07T03:42:03.009Z,7.74
2022-10-07T03:43:02.957Z,7.72
2022-10-07T03:44:02.950Z,7.74
2022-10-07T03:45:02.932Z,7.72
2022-10-07T03:46:02.990Z,7.69
2022-10-07T03:47:07.599Z,7.71
2022-10-07T03:48:02.905Z,7.72
2022-10-07T03:49:02.881Z,7.72
2022-10-07T03:50:02.971Z,7.72
2022-10-07T03:51:02.926Z,7.72
2022-10-07T03:52:02.843Z,7.71
2022-10-07T03:53:02.826Z,7.74
2022-10-07T03:54:02.818Z,7.72
2022-10-07T03:55:02.773Z,7.72
2022-10-07T03:56:02.869Z,7.71
2022-10-07T03:57:02.783Z,7.72
2022-10-07T03:58:02.769Z,7.67
2022-10-07T03:59:02.727Z,7.69
2022-10-07T04:00:02.728Z,7.63
2022-10-07T04:01:02.725Z,7.63
2022-10-07T04:02:02.769Z,7.63
2022-10-07T04:03:02.804Z,7.60
2022-10-07T04:04:02.691Z,7.59
2022-10-07T04:05:02.646Z,7.58
2022-10-07T04:06:02.647Z,7.60
2022-10-07T04:07:02.630Z,7.59
2022-10-07T04:08:02.701Z,7.58
2022-10-07T04:09:02.597Z,7.63
2022-10-07T04:10:02.585Z,7.62
2022-10-07T04:11:02.574Z,7.59
2022-10-07T04:12:02.585Z,7.58
2022-10-07T04:13:02.550Z,7.58
2022-10-07T04:14:02.523Z,7.58
2022-10-07T04:15:02.746Z,7.59
2022-10-07T04:16:02.614Z,7.60
2022-10-07T04:17:02.491Z,7.59
2022-10-07T04:18:02.495Z,7.59
2022-10-07T04:19:02.918Z,7.58
2022-10-07T04:20:02.463Z,7.56
2022-10-07T04:21:02.485Z,7.56
2022-10-07T04:22:08.254Z,7.58
2022-10-07T04:23:02.414Z,7.58
2022-10-07T04:24:02.407Z,7.56
2022-10-07T04:25:02.373Z,7.58
2022-10-07T04:26:02.422Z,7.59
2022-10-07T04:27:02.357Z,7.58
2022-10-07T04:28:02.696Z,7.56
2022-10-07T04:29:02.337Z,7.53
2022-10-07T04:30:02.324Z,7.52
2022-10-07T04:31:02.373Z,7.55
2022-10-07T04:32:02.311Z,7.55
2022-10-07T04:33:02.297Z,7.52
2022-10-07T04:34:02.275Z,7.50
2022-10-07T04:35:02.241Z,7.49
2022-10-07T04:36:02.231Z,7.50
2022-10-07T04:37:02.222Z,7.50
2022-10-07T04:38:02.221Z,7.52
2022-10-07T04:39:02.240Z,7.49
2022-10-07T04:40:02.338Z,7.50
2022-10-07T04:41:02.168Z,7.50
2022-10-07T04:42:02.184Z,7.49
2022-10-07T04:43:02.123Z,7.49
2022-10-07T04:44:02.163Z,7.49
2022-10-07T04:45:02.104Z,7.50
2022-10-07T04:46:02.120Z,7.49
2022-10-07T04:47:02.400Z,7.49
2022-10-07T04:48:02.146Z,7.47
2022-10-07T04:49:02.044Z,7.49
2022-10-07T04:50:24.058Z,7.47
2022-10-07T04:51:02.070Z,7.49
2022-10-07T04:52:02.012Z,7.47
2022-10-07T04:53:01.990Z,7.49
2022-10-07T04:54:01.969Z,7.49
2022-10-07T04:55:01.974Z,7.47
2022-10-07T04:56:01.999Z,7.50
2022-10-07T04:57:01.946Z,7.49
2022-10-07T04:58:01.926Z,7.47
2022-10-07T04:59:01.949Z,7.47
2022-10-07T05:00:01.891Z,7.45
2022-10-07T05:01:02.065Z,7.49
2022-10-07T05:02:01.956Z,7.47
2022-10-07T05:03:01.857Z,7.47
2022-10-07T05:04:01.911Z,7.44
2022-10-07T05:05:01.840Z,7.45
2022-10-07T05:06:05.356Z,7.45
2022-10-07T05:07:01.833Z,7.42
2022-10-07T05:08:01.828Z,7.40
2022-10-07T05:09:01.786Z,7.40
2022-10-07T05:10:00.818Z,7.42
2022-10-07T05:11:01.757Z,7.42
2022-10-07T05:12:01.717Z,7.42
2022-10-07T05:13:01.738Z,7.44
2022-10-07T05:14:01.697Z,7.42
2022-10-07T05:15:01.772Z,7.41
2022-10-07T05:16:01.726Z,7.42
2022-10-07T05:17:01.674Z,7.42
2022-10-07T05:18:01.691Z,7.41
2022-10-07T05:19:01.666Z,7.41
2022-10-07T05:20:01.727Z,7.41
2022-10-07T05:21:01.724Z,7.42
2022-10-07T05:22:01.667Z,7.41
2022-10-07T05:23:01.572Z,7.44
2022-10-07T05:24:01.681Z,7.42
2022-10-07T05:25:01.553Z,7.41
2022-10-07T05:26:01.537Z,7.44
2022-10-07T05:27:01.519Z,7.42
2022-10-07T05:28:01.551Z,7.40
2022-10-07T05:29:01.536Z,7.41
2022-10-07T05:30:01.527Z,7.40
2022-10-07T05:31:01.525Z,7.41
2022-10-07T05:32:05.043Z,7.41
2022-10-07T05:33:01.441Z,7.40
2022-10-07T05:34:01.425Z,7.40
2022-10-07T05:35:01.408Z,7.38
2022-10-07T05:36:01.404Z,7.38
2022-10-07T05:37:01.401Z,7.35
2022-10-07T05:38:01.388Z,7.38
2022-10-07T05:39:01.372Z,7.40
2022-10-07T05:40:01.467Z,7.40
2022-10-07T05:41:01.382Z,7.38
2022-10-07T05:42:01.313Z,7.40
2022-10-07T05:43:01.344Z,7.41
2022-10-07T05:44:01.306Z,7.41
2022-10-07T05:45:01.303Z,7.41
2022-10-07T05:46:01.408Z,7.42
2022-10-07T05:47:01.267Z,7.41
2022-10-07T05:48:01.259Z,7.44
2022-10-07T05:49:01.217Z,7.42
2022-10-07T05:50:01.229Z,7.42
2022-10-07T05:51:01.201Z,7.42
2022-10-07T05:52:01.201Z,7.44
2022-10-07T05:53:01.208Z,7.45
2022-10-07T05:54:01.171Z,7.44
2022-10-07T05:55:01.179Z,7.42
2022-10-07T05:56:01.136Z,7.45
2022-10-07T05:57:01.133Z,7.47
2022-10-07T05:58:01.116Z,7.45
2022-10-07T05:59:01.132Z,7.45
2022-10-07T06:00:01.070Z,7.49
2022-10-07T06:01:04.952Z,7.49
2022-10-07T06:02:01.208Z,7.52
2022-10-07T06:03:01.113Z,7.50
2022-10-07T06:04:01.015Z,7.56
2022-10-07T06:05:01.023Z,7.56
2022-10-07T06:06:01.010Z,7.62
2022-10-07T06:07:00.984Z,7.71
2022-10-07T06:08:00.970Z,7.72
2022-10-07T06:09:00.958Z,7.72
2022-10-07T06:10:00.926Z,7.72
2022-10-07T06:11:00.945Z,7.75
2022-10-07T06:12:00.917Z,7.79
2022-10-07T06:13:00.939Z,7.79
2022-10-07T06:14:00.896Z,7.81
2022-10-07T06:15:00.863Z,7.81
2022-10-07T06:16:00.940Z,7.85
2022-10-07T06:17:00.961Z,7.85
2022-10-07T06:18:00.871Z,7.90
2022-10-07T06:19:00.819Z,7.92
2022-10-07T06:20:00.819Z,7.96
2022-10-07T06:21:00.799Z,7.94
2022-10-07T06:22:00.775Z,7.97
2022-10-07T06:23:00.829Z,8.00
2022-10-07T06:24:00.794Z,8.03
2022-10-07T06:25:00.750Z,8.08
2022-10-07T06:26:00.778Z,8.07
2022-10-07T06:27:00.771Z,8.10
2022-10-07T06:28:00.742Z,8.11
2022-10-07T06:29:00.712Z,8.14
2022-10-07T06:30:00.668Z,8.18
2022-10-07T06:31:00.737Z,8.21
2022-10-07T06:32:00.677Z,8.26
2022-10-07T06:33:00.634Z,8.28
2022-10-07T06:34:00.613Z,8.30
2022-10-07T06:35:00.636Z,8.32
2022-10-07T06:36:04.327Z,8.35
2022-10-07T06:37:00.578Z,8.40
2022-10-07T06:38:00.582Z,8.40
2022-10-07T06:39:00.552Z,8.44
2022-10-07T06:40:00.538Z,8.48
2022-10-07T06:41:00.569Z,8.50
2022-10-07T06:42:00.536Z,8.53
2022-10-07T06:43:00.551Z,8.55
2022-10-07T06:44:00.477Z,8.57
2022-10-07T06:45:00.468Z,8.60
2022-10-07T06:46:00.517Z,8.62
2022-10-07T06:47:00.444Z,8.66
2022-10-07T06:48:00.478Z,8.69
2022-10-07T06:49:00.440Z,8.72
2022-10-07T06:50:00.390Z,8.76
2022-10-07T06:51:00.408Z,8.78
2022-10-07T06:52:00.382Z,8.83
2022-10-07T06:53:00.401Z,8.84
2022-10-07T06:54:00.355Z,8.88
2022-10-07T06:55:00.357Z,8.91
2022-10-07T06:56:00.321Z,8.93
2022-10-07T06:57:00.338Z,8.96
2022-10-07T06:58:00.550Z,9.04
2022-10-07T06:59:00.308Z,9.05
2022-10-07T07:00:00.268Z,9.06
2022-10-07T07:01:00.353Z,9.12
2022-10-07T07:02:00.298Z,9.16
2022-10-07T07:03:00.216Z,9.20
2022-10-07T07:04:00.284Z,9.23
2022-10-07T07:05:00.189Z,9.25
2022-10-07T07:06:00.172Z,9.28
2022-10-07T07:07:00.232Z,9.31
2022-10-07T07:08:00.148Z,9.35
2022-10-07T07:09:00.232Z,9.42
2022-10-07T07:10:00.134Z,9.42
2022-10-07T07:11:00.109Z,9.48
2022-10-07T07:12:00.107Z,9.52
2022-10-07T07:13:59.091Z,9.56
2022-10-07T07:15:00.099Z,9.57
2022-10-07T07:16:00.141Z,9.61
2022-10-07T07:17:00.201Z,9.63
2022-10-07T07:18:00.056Z,9.64
2022-10-07T07:19:00.055Z,9.70
2022-10-07T07:19:59.988Z,9.70
2022-10-07T07:21:00.067Z,9.78
2022-10-07T07:21:59.984Z,9.82
2022-10-07T07:22:59.956Z,9.86
2022-10-07T07:23:59.968Z,9.89
2022-10-07T07:24:59.975Z,9.94
2022-10-07T07:26:00.030Z,9.97
2022-10-07T07:27:00.900Z,10.04
2022-10-07T07:27:59.940Z,10.07
2022-10-07T07:28:59.891Z,10.10
2022-10-07T07:29:59.882Z,10.15
2022-10-07T07:30:59.900Z,10.21
2022-10-07T07:32:00.055Z,10.22
2022-10-07T07:32:59.852Z,10.28
2022-10-07T07:33:59.855Z,10.34
2022-10-07T07:34:59.795Z,10.37
2022-10-07T07:35:59.800Z,10.39
2022-10-07T07:36:59.752Z,10.46
2022-10-07T07:37:59.796Z,10.47
2022-10-07T07:38:59.726Z,10.52
2022-10-07T07:39:59.736Z,10.55
2022-10-07T07:40:59.734Z,10.59
2022-10-07T07:41:59.738Z,10.63
2022-10-07T07:42:59.682Z,10.65
2022-10-07T07:43:59.694Z,10.66
2022-10-07T07:45:02.489Z,10.70
2022-10-07T07:45:59.687Z,10.71
2022-10-07T07:46:59.607Z,10.73
2022-10-07T07:47:59.704Z,10.78
2022-10-07T07:48:59.718Z,10.84
2022-10-07T07:49:59.574Z,10.89
2022-10-07T07:50:59.604Z,10.89
2022-10-07T07:51:59.590Z,10.96
2022-10-07T07:52:59.538Z,10.99
2022-10-07T07:53:59.525Z,11.02
2022-10-07T07:54:59.559Z,11.07
2022-10-07T07:55:59.512Z,11.11
2022-10-07T07:56:59.479Z,11.14
2022-10-07T07:57:59.474Z,11.19
2022-10-07T07:58:59.477Z,11.27
2022-10-07T07:59:59.437Z,11.29
2022-10-07T08:00:59.506Z,11.31
2022-10-07T08:01:59.415Z,11.35
2022-10-07T08:02:59.409Z,11.39
2022-10-07T08:03:59.426Z,11.41
2022-10-07T08:04:59.416Z,11.44
2022-10-07T08:05:59.381Z,11.49
2022-10-07T08:06:59.472Z,11.54
2022-10-07T08:07:59.416Z,11.61
2022-10-07T08:08:59.343Z,11.59
2022-10-07T08:09:59.316Z,11.64
2022-10-07T08:10:59.338Z,11.67
2022-10-07T08:11:59.319Z,11.68
2022-10-07T08:12:59.270Z,11.74
2022-10-07T08:13:59.251Z,11.75
2022-10-07T08:14:59.279Z,11.80
2022-10-07T08:15:59.259Z,11.82
2022-10-07T08:16:59.280Z,11.89
2022-10-07T08:17:59.212Z,11.90
2022-10-07T08:18:59.172Z,11.94
2022-10-07T08:19:59.283Z,11.96
2022-10-07T08:20:59.167Z,11.97
2022-10-07T08:21:59.259Z,11.99
2022-10-07T08:22:59.190Z,12.04
2022-10-07T08:23:59.150Z,12.05
2022-10-07T08:24:59.116Z,12.09
2022-10-07T08:25:59.119Z,12.11
2022-10-07T08:26:59.133Z,12.16
2022-10-07T08:27:59.112Z,12.21
2022-10-07T08:28:59.109Z,12.26
2022-10-07T08:29:59.042Z,12.31
2022-10-07T08:30:59.064Z,12.33
2022-10-07T08:31:59.073Z,12.38
2022-10-07T08:33:01.406Z,12.45
2022-10-07T08:33:59.006Z,12.48
2022-10-07T08:34:58.965Z,12.48
2022-10-07T08:35:58.993Z,12.54
2022-10-07T08:36:58.965Z,12.60
2022-10-07T08:37:58.920Z,12.63
2022-10-07T08:38:58.936Z,12.71
2022-10-07T08:39:58.899Z,12.74
2022-10-07T08:40:58.916Z,12.79
2022-10-07T08:41:58.888Z,12.84
2022-10-07T08:42:58.841Z,12.88
2022-10-07T08:44:01.022Z,12.92
2022-10-07T08:44:58.815Z,12.96
2022-10-07T08:45:58.870Z,12.96
2022-10-07T08:46:58.827Z,12.99
2022-10-07T08:47:58.838Z,13.06
2022-10-07T08:48:58.822Z,13.09
2022-10-07T08:49:58.781Z,13.15
2022-10-07T08:50:58.766Z,13.21
2022-10-07T08:51:58.742Z,13.29
2022-10-07T08:52:58.730Z,13.37
2022-10-07T08:53:58.720Z,13.40
2022-10-07T08:54:58.687Z,13.49
2022-10-07T08:55:58.723Z,13.55
2022-10-07T08:56:58.684Z,13.61
2022-10-07T08:57:58.676Z,13.67
2022-10-07T08:58:58.635Z,13.73
2022-10-07T08:59:58.636Z,13.77
2022-10-07T09:00:58.605Z,13.83
2022-10-07T09:01:58.639Z,13.89
2022-10-07T09:02:58.612Z,13.92
2022-10-07T09:03:58.564Z,13.96
2022-10-07T09:04:58.564Z,13.99
2022-10-07T09:05:58.544Z,14.02
2022-10-07T09:06:58.547Z,14.04
2022-10-07T09:07:58.510Z,14.07
2022-10-07T09:08:58.539Z,14.12
2022-10-07T09:09:58.487Z,14.13
2022-10-07T09:10:58.475Z,14.17
2022-10-07T09:11:58.473Z,14.20
2022-10-07T09:12:58.443Z,14.27
2022-10-07T09:13:58.527Z,14.37
2022-10-07T09:14:58.429Z,14.39
2022-10-07T09:15:58.487Z,14.47
2022-10-07T09:16:58.403Z,14.53
2022-10-07T09:17:59.025Z,14.61
2022-10-07T09:18:58.354Z,14.67
2022-10-07T09:19:58.351Z,14.71
2022-10-07T09:20:58.332Z,14.78
2022-10-07T09:21:58.335Z,14.80
2022-10-07T09:22:58.304Z,14.81
2022-10-07T09:23:58.299Z,14.84
2022-10-07T09:24:58.285Z,14.86
2022-10-07T09:25:58.314Z,14.87
2022-10-07T09:26:58.245Z,14.93
2022-10-07T09:27:58.342Z,14.99
2022-10-07T09:28:58.245Z,15.08
2022-10-07T09:29:58.230Z,15.19
2022-10-07T09:30:58.235Z,15.17
2022-10-07T09:31:58.220Z,15.24
2022-10-07T09:32:58.164Z,15.30
2022-10-07T09:33:58.152Z,15.30
2022-10-07T09:34:58.138Z,15.36
2022-10-07T09:35:58.198Z,15.38
2022-10-07T09:36:58.174Z,15.42
2022-10-07T09:37:58.134Z,15.45
2022-10-07T09:38:58.113Z,15.51
2022-10-07T09:39:58.081Z,15.59
2022-10-07T09:40:58.104Z,15.63
2022-10-07T09:41:58.060Z,15.66
2022-10-07T09:42:58.082Z,15.66
2022-10-07T09:43:58.026Z,15.67
2022-10-07T09:44:58.008Z,15.74
2022-10-07T09:45:58.061Z,15.78
2022-10-07T09:46:57.994Z,15.79
2022-10-07T09:47:57.980Z,15.82
2022-10-07T09:48:57.955Z,15.84
2022-10-07T09:49:58.123Z,15.86
2022-10-07T09:50:57.957Z,15.89
2022-10-07T09:51:57.995Z,15.89
2022-10-07T09:52:58.294Z,15.99
2022-10-07T09:53:57.875Z,16.03
2022-10-07T09:54:57.933Z,16.07
2022-10-07T09:55:57.984Z,16.14
2022-10-07T09:56:57.828Z,16.15
2022-10-07T09:57:58.943Z,16.22
2022-10-07T09:58:57.805Z,16.20
2022-10-07T09:59:57.786Z,16.20
2022-10-07T10:00:57.791Z,16.31
2022-10-07T10:01:57.842Z,16.40
2022-10-07T10:03:01.262Z,16.50
2022-10-07T10:03:57.820Z,16.55
2022-10-07T10:04:57.725Z,16.55
2022-10-07T10:05:57.743Z,16.58
2022-10-07T10:06:57.743Z,16.62
2022-10-07T10:07:57.760Z,16.73
2022-10-07T10:08:57.701Z,16.80
2022-10-07T10:09:57.709Z,16.90
2022-10-07T10:10:57.643Z,16.90
2022-10-07T10:12:56.642Z,16.92
2022-10-07T10:13:59.736Z,17.03
2022-10-07T10:14:57.615Z,17.10
2022-10-07T10:15:57.666Z,17.18
2022-10-07T10:16:57.591Z,17.26
2022-10-07T10:17:57.559Z,17.30
2022-10-07T10:18:57.536Z,17.36
2022-10-07T10:19:57.544Z,17.40
2022-10-07T10:20:57.550Z,17.38
2022-10-07T10:21:57.537Z,17.36
2022-10-07T10:22:57.567Z,17.41
2022-10-07T10:23:57.499Z,17.44
2022-10-07T10:24:57.449Z,17.40
2022-10-07T10:25:57.862Z,17.47
2022-10-07T10:26:57.418Z,17.51
2022-10-07T10:27:57.420Z,17.53
2022-10-07T10:28:57.443Z,17.48
2022-10-07T10:29:57.388Z,17.40
2022-10-07T10:30:57.460Z,17.41
2022-10-07T10:31:57.372Z,17.51
2022-10-07T10:32:57.342Z,17.63
2022-10-07T10:33:56.336Z,17.73
2022-10-07T10:34:57.321Z,17.69
2022-10-07T10:35:57.338Z,17.74
2022-10-07T10:36:57.654Z,17.73
2022-10-07T10:37:57.288Z,17.67
2022-10-07T10:38:57.295Z,17.70
2022-10-07T10:39:57.269Z,17.73
2022-10-07T10:40:57.297Z,17.81
2022-10-07T10:41:57.262Z,17.91
2022-10-07T10:42:57.223Z,17.95
2022-10-07T10:43:57.288Z,18.00
2022-10-07T10:44:57.200Z,18.04
2022-10-07T10:45:57.406Z,18.10
2022-10-07T10:46:57.174Z,18.15
2022-10-07T10:47:58.127Z,18.22
2022-10-07T10:48:57.138Z,18.31
2022-10-07T10:49:57.170Z,18.42
2022-10-07T10:50:57.094Z,18.42
2022-10-07T10:51:57.110Z,18.42
2022-10-07T10:52:57.082Z,18.37
2022-10-07T10:53:57.065Z,18.36
2022-10-07T10:54:57.118Z,18.43
2022-10-07T10:55:57.090Z,18.47
2022-10-07T10:56:57.064Z,18.49
2022-10-07T10:58:00.426Z,18.44
2022-10-07T10:58:57.050Z,18.46
2022-10-07T10:59:56.997Z,18.47
2022-10-07T11:00:59.723Z,18.50
2022-10-07T11:01:57.008Z,18.47
2022-10-07T11:02:56.999Z,18.44
2022-10-07T11:03:56.930Z,18.46
2022-10-07T11:04:56.930Z,18.52
2022-10-07T11:05:56.934Z,18.49
2022-10-07T11:06:56.927Z,18.42
2022-10-07T11:07:56.991Z,18.44
2022-10-07T11:08:56.879Z,18.46
2022-10-07T11:09:56.878Z,18.50
2022-10-07T11:10:56.864Z,18.58
2022-10-07T11:11:56.889Z,18.65
2022-10-07T11:12:56.883Z,18.73
2022-10-07T11:13:56.799Z,18.70
2022-10-07T11:14:57.899Z,18.64
2022-10-07T11:15:56.807Z,18.59
2022-10-07T11:16:56.831Z,18.58
2022-10-07T11:17:56.737Z,18.55
2022-10-07T11:18:57.077Z,18.46
2022-10-07T11:19:58.787Z,18.46
2022-10-07T11:20:56.712Z,18.40
2022-10-07T11:21:56.728Z,18.40
2022-10-07T11:22:56.686Z,18.46
2022-10-07T11:23:56.655Z,18.47
2022-10-07T11:24:55.725Z,18.55
2022-10-07T11:25:56.626Z,18.58
2022-10-07T11:26:56.642Z,18.61
2022-10-07T11:27:56.638Z,18.58
2022-10-07T11:28:56.591Z,18.47
2022-10-07T11:29:56.685Z,18.43
2022-10-07T11:30:56.656Z,18.34
2022-10-07T11:31:56.555Z,18.28
2022-10-07T11:32:56.538Z,18.19
2022-10-07T11:33:56.519Z,18.19
2022-10-07T11:34:56.616Z,18.10
2022-10-07T11:35:56.496Z,18.09
2022-10-07T11:36:56.484Z,18.09
2022-10-07T11:37:56.552Z,18.13
2022-10-07T11:38:56.576Z,18.07
2022-10-07T11:39:56.452Z,18.07
2022-10-07T11:40:56.418Z,18.07
2022-10-07T11:41:56.485Z,18.10
2022-10-07T11:42:56.410Z,18.13
2022-10-07T11:43:56.408Z,18.24
2022-10-07T11:44:56.379Z,18.21
2022-10-07T11:45:56.361Z,18.17
2022-10-07T11:46:56.422Z,18.15
2022-10-07T11:47:56.324Z,18.13
2022-10-07T11:48:56.304Z,18.15
2022-10-07T11:49:56.334Z,18.19
2022-10-07T11:50:56.323Z,18.25
2022-10-07T11:51:56.263Z,18.39
2022-10-07T11:52:56.256Z,18.47
2022-10-07T11:53:56.240Z,18.55
2022-10-07T11:54:56.263Z,18.64
2022-10-07T11:55:56.207Z,18.62
2022-10-07T11:56:56.209Z,18.57
2022-10-07T11:57:56.202Z,18.44
2022-10-07T11:58:56.164Z,18.37
2022-10-07T11:59:56.172Z,18.27
2022-10-07T12:00:55.179Z,18.29
2022-10-07T12:01:56.195Z,18.28
2022-10-07T12:02:56.184Z,18.33
2022-10-07T12:03:56.108Z,18.43
2022-10-07T12:04:56.092Z,18.44
2022-10-07T12:05:56.092Z,18.55
2022-10-07T12:06:56.048Z,18.64
2022-10-07T12:07:56.079Z,18.77
2022-10-07T12:08:56.058Z,18.87
2022-10-07T12:09:56.009Z,18.97
2022-10-07T12:10:56.086Z,19.08
2022-10-07T12:11:55.995Z,19.14
2022-10-07T12:12:55.975Z,19.17
2022-10-07T12:13:55.960Z,19.17
2022-10-07T12:14:55.987Z,19.06
2022-10-07T12:15:55.965Z,19.01
2022-10-07T12:16:55.933Z,19.01
2022-10-07T12:17:55.904Z,19.05
2022-10-07T12:18:55.929Z,19.10
2022-10-07T12:19:55.880Z,19.08
2022-10-07T12:20:55.889Z,19.06
2022-10-07T12:21:55.867Z,19.01
2022-10-07T12:22:55.846Z,18.90
2022-10-07T12:23:55.838Z,18.92
2022-10-07T12:24:55.832Z,18.91
2022-10-07T12:25:55.860Z,18.97
2022-10-07T12:26:57.530Z,19.01
2022-10-07T12:27:55.770Z,18.92
2022-10-07T12:28:55.765Z,18.86
2022-10-07T12:29:55.738Z,18.84
2022-10-07T12:30:55.740Z,18.84
2022-10-07T12:31:55.874Z,18.86
2022-10-07T12:32:55.733Z,18.90
2022-10-07T12:33:55.686Z,18.95
2022-10-07T12:34:55.674Z,19.05
2022-10-07T12:35:55.712Z,19.13
2022-10-07T12:36:55.654Z,19.13
2022-10-07T12:37:55.651Z,19.20
2022-10-07T12:38:55.694Z,19.15
2022-10-07T12:39:55.687Z,19.11
2022-10-07T12:40:55.613Z,19.14
2022-10-07T12:41:55.629Z,19.15
2022-10-07T12:42:55.571Z,19.20
2022-10-07T12:43:55.565Z,19.28
2022-10-07T12:44:55.632Z,19.25
2022-10-07T12:45:55.555Z,19.24
2022-10-07T12:46:55.511Z,19.24
2022-10-07T12:47:55.514Z,19.29
2022-10-07T12:48:55.554Z,19.25
2022-10-07T12:49:55.462Z,19.18
2022-10-07T12:50:55.520Z,19.24
2022-10-07T12:51:55.445Z,19.28
2022-10-07T12:52:55.428Z,19.29
2022-10-07T12:53:55.419Z,19.38
2022-10-07T12:54:55.428Z,19.40
2022-10-07T12:55:55.831Z,19.46
2022-10-07T12:56:55.412Z,19.50
2022-10-07T12:57:55.364Z,19.54
2022-10-07T12:58:55.382Z,19.57
2022-10-07T12:59:55.326Z,19.54
2022-10-07T13:00:55.453Z,19.46
2022-10-07T13:01:55.564Z,19.35
2022-10-07T13:02:55.290Z,19.33
2022-10-07T13:03:55.312Z,19.24
2022-10-07T13:04:55.322Z,19.18
2022-10-07T13:05:55.275Z,19.17
2022-10-07T13:06:55.241Z,19.23
2022-10-07T13:07:55.261Z,19.28
2022-10-07T13:08:55.215Z,19.31